Time;durP1;ratioP1;P1;durP2;ratioP2;P2;SDS_P1;SDS_P2;PMS_P1;PMS_P2;Temp;Humidity;BMP_temperature;BMP_pressure;BME280_temperature;BME280_humidity;BME280_pressure;Samples;Min_cycle;Max_cycle;Signal;HPM_P1;HPM_P2
2021/12/01 07:00:03;;;;;;;;;;;8.50;99.90;;;;;;5272136;23;20048;-70
2021/12/01 07:02:29;;;;;;;2.72;1.85;;;8.40;99.90;;;;;;4900557;29;19995;-68
2021/12/01 07:04:54;;;;;;;2.03;1.92;;;8.50;99.90;;;;;;4879344;29;20052;-69
2021/12/01 07:07:20;;;;;;;3.25;2.65;;;8.50;99.90;;;;;;4879786;29;20044;-69
2021/12/01 07:09:50;;;;;;;3.58;2.83;;;8.50;99.90;;;;;;4880020;29;20101;-67
2021/12/01 07:12:15;;;;;;;2.95;2.65;;;8.40;99.90;;;;;;4880124;29;20059;-69
2021/12/01 07:14:41;;;;;;;5.00;4.35;;;8.50;99.90;;;;;;4896273;29;20053;-70
2021/12/01 07:17:07;;;;;;;3.33;3.03;;;8.40;99.90;;;;;;4880564;29;20045;-68
2021/12/01 07:19:32;;;;;;;4.22;2.67;;;8.40;99.90;;;;;;4895479;29;20149;-70
2021/12/01 07:21:58;;;;;;;3.10;2.83;;;8.40;99.90;;;;;;4896847;29;20055;-70
2021/12/01 07:24:24;;;;;;;2.55;2.35;;;8.40;99.90;;;;;;4897188;29;20108;-69
2021/12/01 07:26:50;;;;;;;2.70;2.50;;;8.40;99.90;;;;;;4883020;29;20052;-69
2021/12/01 07:29:17;;;;;;;3.08;2.78;;;8.40;99.90;;;;;;4882694;29;20123;-68
2021/12/01 07:31:43;;;;;;;2.83;2.45;;;8.40;99.90;;;;;;4895752;29;20079;-70
2021/12/01 07:34:09;;;;;;;3.13;2.53;;;8.40;99.90;;;;;;4883296;29;20111;-67
2021/12/01 07:36:35;;;;;;;2.70;2.42;;;8.40;99.90;;;;;;4883212;29;20053;-68
2021/12/01 07:39:02;;;;;;;2.90;2.38;;;8.40;99.90;;;;;;4900906;29;20044;-70
2021/12/01 07:41:27;;;;;;;2.90;2.70;;;8.50;99.90;;;;;;4900392;29;20099;-70
2021/12/01 07:43:53;;;;;;;2.92;2.67;;;8.50;99.90;;;;;;4883828;29;20342;-68
2021/12/01 07:46:19;;;;;;;2.70;2.50;;;8.50;99.90;;;;;;4883447;29;20112;-70
2021/12/01 07:48:45;;;;;;;2.80;2.42;;;8.50;99.90;;;;;;4883267;29;20053;-71
2021/12/01 07:51:10;;;;;;;5.18;3.30;;;8.50;99.90;;;;;;4881855;29;20084;-69
2021/12/01 07:53:36;;;;;;;4.38;3.75;;;8.40;99.90;;;;;;4898797;29;20060;-69
2021/12/01 07:56:03;;;;;;;3.55;3.20;;;8.40;99.90;;;;;;4898649;29;20049;-69
2021/12/01 07:58:29;;;;;;;4.57;3.78;;;8.40;99.90;;;;;;4882961;29;20040;-69
2021/12/01 08:00:57;;;;;;;5.90;5.30;;;8.40;99.90;;;;;;4882854;29;20092;-68
2021/12/01 08:03:23;;;;;;;4.20;3.30;;;8.40;99.90;;;;;;4899791;29;20127;-69
2021/12/01 08:05:49;;;;;;;4.05;3.58;;;8.50;99.90;;;;;;4898095;29;20052;-71
2021/12/01 08:08:14;;;;;;;3.47;3.17;;;8.50;99.90;;;;;;4883035;29;20401;-70
2021/12/01 08:10:41;;;;;;;2.95;2.72;;;8.50;99.90;;;;;;4898539;29;20077;-69
2021/12/01 08:13:07;;;;;;;3.90;3.45;;;8.60;99.90;;;;;;4882483;29;20136;-69
2021/12/01 08:15:33;;;;;;;4.03;3.63;;;8.50;99.90;;;;;;4880563;29;20132;-71
2021/12/01 08:17:59;;;;;;;3.03;2.50;;;8.60;99.90;;;;;;4899621;29;20108;-70
2021/12/01 08:20:25;;;;;;;3.60;3.10;;;8.60;99.90;;;;;;4896882;29;20060;-70
2021/12/01 08:22:51;;;;;;;4.97;3.30;;;8.60;99.90;;;;;;4897788;29;20056;-70
2021/12/01 08:25:17;;;;;;;4.88;3.08;;;8.60;99.90;;;;;;4882881;29;20075;-69
2021/12/01 08:27:43;;;;;;;4.05;3.65;;;8.60;99.90;;;;;;4897809;29;20040;-67
2021/12/01 08:30:09;;;;;;;3.40;2.90;;;8.70;99.90;;;;;;4898653;29;20060;-71
2021/12/01 08:32:35;;;;;;;3.55;3.00;;;8.70;99.90;;;;;;4881889;29;20053;-71
2021/12/01 08:35:01;;;;;;;3.90;3.40;;;8.70;99.90;;;;;;4897230;29;20056;-68
2021/12/01 08:37:27;;;;;;;3.83;3.00;;;8.70;99.90;;;;;;4897497;29;20063;-70
2021/12/01 08:39:53;;;;;;;3.60;3.30;;;8.70;99.90;;;;;;4897563;29;20037;-69
2021/12/01 08:42:21;;;;;;;5.78;3.95;;;8.80;99.90;;;;;;4891429;29;20060;-69
2021/12/01 08:44:48;;;;;;;3.53;3.22;;;8.80;99.90;;;;;;4902351;29;20065;-68
2021/12/01 08:47:15;;;;;;;3.58;3.15;;;8.80;99.90;;;;;;4882146;29;20521;-70
2021/12/01 08:49:41;;;;;;;5.03;3.45;;;8.80;99.90;;;;;;4881590;29;20065;-69
2021/12/01 08:52:07;;;;;;;4.65;2.85;;;8.80;99.90;;;;;;4882470;29;20563;-70
2021/12/01 08:54:33;;;;;;;6.60;3.10;;;8.80;99.90;;;;;;4882374;29;20059;-69
2021/12/01 08:56:59;;;;;;;3.08;2.40;;;8.80;99.90;;;;;;4912286;29;20130;-68
2021/12/01 08:59:24;;;;;;;7.18;2.50;;;8.80;99.90;;;;;;4917349;29;20115;-69
2021/12/01 09:01:50;;;;;;;7.20;2.60;;;8.80;99.90;;;;;;4916449;29;20130;-69
2021/12/01 09:04:16;;;;;;;8.07;2.30;;;8.80;99.90;;;;;;4881515;29;20059;-69
2021/12/01 09:06:42;;;;;;;8.40;1.90;;;8.80;99.90;;;;;;4910068;29;20050;-68
2021/12/01 09:09:07;;;;;;;11.30;2.53;;;8.70;99.90;;;;;;4900719;29;20051;-69
2021/12/01 09:11:33;;;;;;;6.57;2.10;;;8.80;99.90;;;;;;4916295;29;20135;-70
2021/12/01 09:13:59;;;;;;;7.05;2.38;;;8.70;99.90;;;;;;4900851;29;20060;-70
2021/12/01 09:16:25;;;;;;;6.30;2.13;;;8.80;99.90;;;;;;4917570;29;20181;-70
2021/12/01 09:18:51;;;;;;;4.35;1.42;;;8.80;99.90;;;;;;4899999;29;20048;-68
2021/12/01 09:21:18;;;;;;;5.55;1.75;;;8.80;99.90;;;;;;4881270;29;20068;-70
2021/12/01 09:23:45;;;;;;;6.95;1.65;;;8.90;99.90;;;;;;4881591;29;20404;-69
2021/12/01 09:26:11;;;;;;;7.90;2.00;;;8.90;99.90;;;;;;4881344;29;20088;-68
2021/12/01 09:28:36;;;;;;;5.57;1.80;;;8.90;99.90;;;;;;4881430;29;20127;-69
2021/12/01 09:31:02;;;;;;;7.82;2.08;;;8.90;99.90;;;;;;4882867;29;20055;-71
2021/12/01 09:33:29;;;;;;;7.22;1.73;;;9.00;99.90;;;;;;4881279;29;20064;-70
2021/12/01 09:35:56;;;;;;;4.07;1.52;;;9.00;99.90;;;;;;4915475;29;20183;-69
2021/12/01 09:38:22;;;;;;;6.60;1.52;;;8.90;99.90;;;;;;4890091;29;20051;-70
2021/12/01 09:40:54;;;;;;;4.32;1.30;;;8.90;99.90;;;;;;4900144;29;20143;-69
2021/12/01 09:43:25;;;;;;;6.03;1.50;;;8.90;99.90;;;;;;4900371;29;20068;-69
2021/12/01 09:45:50;;;;;;;5.80;1.27;;;8.90;99.90;;;;;;4887996;29;20296;-69
2021/12/01 09:48:16;;;;;;;8.18;1.55;;;8.80;99.90;;;;;;4900124;29;20143;-69
2021/12/01 09:50:42;;;;;;;8.38;1.58;;;8.80;99.90;;;;;;4916564;29;20059;-69
2021/12/01 09:53:08;;;;;;;6.88;1.55;;;8.80;99.90;;;;;;4912550;29;20052;-69
2021/12/01 09:55:35;;;;;;;11.80;1.50;;;8.80;99.90;;;;;;4880760;29;20064;-68
2021/12/01 09:58:07;;;;;;;7.70;1.40;;;8.80;99.90;;;;;;4877954;29;20049;-68
2021/12/01 10:00:35;;;;;;;7.30;1.23;;;8.80;99.90;;;;;;4877146;29;20061;-70
2021/12/01 10:03:02;;;;;;;5.88;1.15;;;8.80;99.90;;;;;;4880330;29;20060;-68
2021/12/01 10:06:09;;;;;;;5.20;0.93;;;8.70;99.90;;;;;;4880399;29;20132;-71
2021/12/01 10:08:38;;;;;;;5.10;1.15;;;8.70;99.90;;;;;;4880503;29;20057;-67
2021/12/01 10:11:12;;;;;;;6.60;1.15;;;8.70;99.90;;;;;;4898109;29;20138;-68
2021/12/01 10:13:43;;;;;;;8.88;1.95;;;8.70;99.90;;;;;;4881215;29;20056;-66
2021/12/01 10:16:11;;;;;;;9.07;1.50;;;8.80;99.90;;;;;;4895725;29;20052;-68
2021/12/01 10:18:48;;;;;;;6.93;1.05;;;8.80;99.90;;;;;;4881166;29;20063;-68
2021/12/01 10:21:31;;;;;;;7.03;1.20;;;8.80;99.90;;;;;;4896296;29;20487;-70
2021/12/01 10:24:03;;;;;;;7.50;1.40;;;8.80;99.90;;;;;;4896547;29;20092;-68
2021/12/01 10:26:37;;;;;;;7.78;1.40;;;8.80;99.90;;;;;;4880829;29;20087;-67
2021/12/01 10:29:12;;;;;;;6.63;1.20;;;8.80;99.90;;;;;;4896802;29;20112;-69
2021/12/01 10:31:47;;;;;;;9.65;1.60;;;8.90;99.90;;;;;;4897593;29;20055;-67
2021/12/01 10:34:14;;;;;;;8.80;1.67;;;8.90;99.90;;;;;;4890536;29;20166;-66
2021/12/01 10:36:40;;;;;;;9.43;1.30;;;8.90;99.90;;;;;;4880677;29;20381;-70
2021/12/01 10:39:06;;;;;;;6.50;1.35;;;8.80;99.90;;;;;;4895684;29;20055;-67
2021/12/01 10:41:36;;;;;;;6.57;1.40;;;8.80;99.90;;;;;;4897561;29;20127;-68
2021/12/01 10:44:14;;;;;;;7.13;1.75;;;8.80;99.90;;;;;;4881143;29;20053;-67
2021/12/01 10:46:49;;;;;;;11.38;1.60;;;8.90;99.90;;;;;;4880711;29;20067;-69
2021/12/01 10:49:16;;;;;;;10.00;1.65;;;8.90;99.90;;;;;;4880113;29;20104;-69
2021/12/01 10:51:44;;;;;;;7.00;1.10;;;8.90;99.90;;;;;;4880468;29;20081;-67
2021/12/01 10:54:16;;;;;;;11.15;1.58;;;9.00;99.90;;;;;;4881049;29;20083;-70
2021/12/01 10:56:42;;;;;;;7.13;1.35;;;9.10;99.90;;;;;;4880673;29;20131;-69
2021/12/01 10:59:16;;;;;;;7.63;1.50;;;9.10;99.90;;;;;;4880835;29;20575;-67
2021/12/01 11:01:43;;;;;;;9.77;1.50;;;9.10;99.90;;;;;;4883549;29;20052;-68
2021/12/01 11:04:09;;;;;;;8.82;1.70;;;9.10;99.90;;;;;;4884699;29;20053;-69
2021/12/01 11:06:42;;;;;;;7.05;1.30;;;9.10;99.90;;;;;;4882887;29;20485;-68
2021/12/01 11:09:08;;;;;;;10.82;1.77;;;9.00;99.90;;;;;;4899459;29;20414;-69
2021/12/01 11:11:43;;;;;;;7.15;1.73;;;9.00;99.90;;;;;;4901381;29;20059;-68
2021/12/01 11:14:14;;;;;;;11.18;2.47;;;8.90;99.90;;;;;;4918750;29;20157;-68
2021/12/01 11:16:43;;;;;;;10.85;2.95;;;8.90;99.90;;;;;;4887183;29;20056;-68
2021/12/01 11:19:09;;;;;;;6.97;1.63;;;8.90;99.90;;;;;;4912551;29;20052;-69
2021/12/01 11:21:37;;;;;;;12.23;2.13;;;8.90;99.90;;;;;;4899358;29;20445;-67
2021/12/01 11:24:10;;;;;;;7.60;1.70;;;8.80;99.90;;;;;;4902102;29;20556;-68
2021/12/01 11:26:38;;;;;;;11.88;1.80;;;8.90;99.90;;;;;;4905628;29;20535;-69
2021/12/01 11:29:04;;;;;;;5.40;1.52;;;8.80;99.90;;;;;;4885173;29;20103;-67
2021/12/01 11:31:41;;;;;;;13.57;1.95;;;8.80;99.90;;;;;;4906306;29;20059;-68
2021/12/01 11:34:13;;;;;;;14.75;2.20;;;8.80;99.90;;;;;;4883462;29;20064;-69
2021/12/01 11:36:44;;;;;;;13.60;1.90;;;8.70;99.90;;;;;;4899428;29;20048;-68
2021/12/01 11:39:17;;;;;;;16.27;2.00;;;8.80;99.90;;;;;;4899797;29;20156;-69
2021/12/01 11:41:43;;;;;;;;;;;8.80;99.90;;;;;;4900340;29;20053;-68
2021/12/01 11:44:11;;;;;;;11.30;1.80;;;8.80;99.90;;;;;;4904254;29;20278;-68
2021/12/01 11:46:36;;;;;;;10.63;2.40;;;8.80;99.90;;;;;;4908421;29;20041;-69
2021/12/01 11:49:13;;;;;;;12.13;2.28;;;8.80;99.90;;;;;;4898164;29;20115;-68
2021/12/01 11:51:45;;;;;;;10.90;2.17;;;8.80;99.90;;;;;;4918500;29;20056;-69
2021/12/01 11:54:16;;;;;;;13.57;2.63;;;8.70;99.90;;;;;;4902003;29;20044;-70
2021/12/01 11:56:59;;;;;;;14.10;2.78;;;8.70;99.90;;;;;;4902321;29;20063;-69
2021/12/01 11:59:26;;;;;;;9.90;2.17;;;8.70;99.90;;;;;;4918771;29;20483;-68
2021/12/01 12:01:55;;;;;;;13.32;2.75;;;8.70;99.90;;;;;;4901220;29;20062;-70
2021/12/01 12:04:23;;;;;;;11.27;2.50;;;8.70;99.90;;;;;;4882942;29;20059;-69
2021/12/01 12:06:52;;;;;;;16.00;3.60;;;8.60;99.90;;;;;;4882833;29;20060;-71
2021/12/01 12:09:21;;;;;;;17.00;3.28;;;8.60;99.90;;;;;;4886497;29;20124;-69
2021/12/01 12:11:49;;;;;;;10.60;2.47;;;8.60;99.90;;;;;;4889737;29;20057;-68
2021/12/01 12:14:21;;;;;;;15.40;2.92;;;8.50;99.90;;;;;;4888323;29;20049;-69
2021/12/01 12:17:14;;;;;;;13.70;2.95;;;8.40;99.90;;;;;;4898116;29;20135;-68
2021/12/01 12:19:46;;;;;;;;;;;8.40;99.90;;;;;;4898099;29;20113;-70
2021/12/01 12:22:14;;;;;;;13.05;2.47;;;8.40;99.90;;;;;;4892857;29;20291;-67
2021/12/01 12:24:45;;;;;;;12.93;3.05;;;8.40;99.90;;;;;;4882062;29;20449;-67
2021/12/01 12:27:31;;;;;;;15.15;2.63;;;8.50;99.90;;;;;;4867364;29;20056;-68
2021/12/01 12:29:59;;;;;;;14.27;2.60;;;8.40;99.90;;;;;;4877155;29;20048;-67
2021/12/01 12:32:29;;;;;;;13.48;3.17;;;8.50;99.90;;;;;;4882224;29;20080;-67
2021/12/01 12:34:58;;;;;;;15.15;2.25;;;8.50;99.90;;;;;;4898170;29;20052;-67
2021/12/01 12:37:27;;;;;;;14.93;2.42;;;8.40;99.90;;;;;;4898211;29;20065;-68
2021/12/01 12:39:53;;;;;;;19.88;3.17;;;8.40;99.90;;;;;;4901014;29;20116;-67
2021/12/01 12:42:20;;;;;;;15.63;2.60;;;8.50;99.90;;;;;;4887532;29;20060;-69
2021/12/01 12:44:48;;;;;;;13.55;3.65;;;8.50;99.90;;;;;;4879821;29;20096;-71
2021/12/01 12:47:22;;;;;;;12.90;2.50;;;8.50;99.90;;;;;;4918208;29;20052;-69
2021/12/01 12:49:51;;;;;;;14.13;2.85;;;8.50;99.90;;;;;;4908417;29;20055;-69
2021/12/01 12:52:27;;;;;;;37.85;3.17;;;8.50;99.90;;;;;;4901239;29;20488;-68
2021/12/01 12:55:01;;;;;;;11.52;1.77;;;8.40;99.90;;;;;;4908799;29;20064;-67
2021/12/01 12:57:57;;;;;;;11.63;2.38;;;8.40;99.90;;;;;;4884011;29;20063;-70
2021/12/01 13:00:48;;;;;;;13.35;2.20;;;8.40;99.90;;;;;;4889447;29;20057;-70
2021/12/01 13:03:23;;;;;;;16.20;2.35;;;8.40;99.90;;;;;;4892179;29;20401;-68
2021/12/01 13:05:52;;;;;;;17.52;2.58;;;8.40;99.90;;;;;;4893400;29;20052;-67
2021/12/01 13:08:33;;;;;;;8.50;2.17;;;8.40;99.90;;;;;;4916356;29;20052;-70
2021/12/01 13:11:00;;;;;;;12.88;2.05;;;8.40;99.90;;;;;;4899759;29;20453;-70
2021/12/01 13:13:35;;;;;;;9.00;2.20;;;8.40;99.90;;;;;;4886849;29;20052;-67
2021/12/01 13:16:02;;;;;;;8.18;1.80;;;8.30;99.90;;;;;;4878196;29;20127;-70
2021/12/01 13:18:33;;;;;;;11.43;2.00;;;8.30;99.90;;;;;;4868009;29;20049;-68
2021/12/01 13:21:07;;;;;;;8.25;1.83;;;8.20;99.90;;;;;;4903840;29;20386;-69
2021/12/01 13:23:43;;;;;;;10.07;1.52;;;8.10;99.90;;;;;;4900198;29;20511;-69
2021/12/01 13:26:18;;;;;;;9.70;2.15;;;8.10;99.90;;;;;;4910536;29;20587;-69
2021/12/01 13:28:51;;;;;;;6.68;1.65;;;8.10;99.90;;;;;;4892204;29;20049;-68
2021/12/01 13:31:35;;;;;;;9.50;1.70;;;8.10;99.90;;;;;;4878608;29;20056;-68
2021/12/01 13:34:09;;;;;;;11.77;1.88;;;8.10;99.90;;;;;;4866471;29;20493;-68
2021/12/01 13:36:41;;;;;;;8.73;1.80;;;8.10;99.90;;;;;;4889147;29;20067;-70
2021/12/01 13:39:16;;;;;;;8.50;1.60;;;8.10;99.90;;;;;;4897474;29;20060;-67
2021/12/01 13:41:49;;;;;;;9.18;2.47;;;8.00;99.90;;;;;;4878724;29;20500;-70
2021/12/01 13:44:37;;;;;;;10.00;1.60;;;8.00;99.90;;;;;;4878640;29;20049;-68
2021/12/01 13:47:10;;;;;;;11.77;1.75;;;8.00;99.90;;;;;;4870129;29;20052;-70
2021/12/01 13:49:49;;;;;;;5.90;1.58;;;8.00;99.90;;;;;;4898284;29;20057;-68
2021/12/01 13:52:35;;;;;;;8.55;1.50;;;7.80;99.90;;;;;;4894823;29;20496;-69
2021/12/01 13:55:23;;;;;;;7.95;1.70;;;7.70;99.90;;;;;;4873110;29;20067;-68
2021/12/01 13:57:54;;;;;;;8.43;1.50;;;7.60;99.90;;;;;;4911983;29;20056;-69
2021/12/01 14:00:39;;;;;;;8.97;1.47;;;7.50;99.90;;;;;;4911054;29;20064;-67
2021/12/01 14:03:08;;;;;;;12.98;1.98;;;7.60;99.90;;;;;;4896579;29;20063;-69
2021/12/01 14:05:34;;;;;;;12.38;2.30;;;7.50;99.90;;;;;;4898067;29;20079;-69
2021/12/01 14:08:20;;;;;;;7.53;1.40;;;7.50;99.90;;;;;;4897225;29;20140;-70
2021/12/01 14:11:16;;;;;;;7.72;1.73;;;7.50;99.90;;;;;;4883431;29;20458;-71
2021/12/01 14:13:45;;;;;;;8.07;1.55;;;7.60;99.90;;;;;;4899942;29;20477;-70
2021/12/01 14:16:11;;;;;;;8.23;1.30;;;7.60;99.90;;;;;;4897648;29;20048;-69
2021/12/01 14:18:37;;;;;;;13.57;1.98;;;7.50;99.90;;;;;;4917060;29;20052;-68
2021/12/01 14:21:14;;;;;;;10.23;1.27;;;7.50;99.90;;;;;;4896986;29;20060;-69
2021/12/01 14:23:45;;;;;;;9.10;1.70;;;7.30;99.90;;;;;;4899844;29;20052;-72
2021/12/01 14:26:11;;;;;;;7.10;1.48;;;7.20;99.90;;;;;;4914501;29;20419;-69
2021/12/01 14:28:38;;;;;;;12.32;1.88;;;7.10;99.90;;;;;;4892360;29;20061;-68
2021/12/01 14:31:05;;;;;;;10.30;1.73;;;7.10;99.90;;;;;;4899006;29;20063;-69
2021/12/01 14:33:31;;;;;;;8.40;1.92;;;7.00;99.90;;;;;;4897969;29;20127;-69
2021/12/01 14:36:03;;;;;;;10.18;1.55;;;7.00;99.90;;;;;;4900967;29;20106;-70
2021/12/01 14:38:32;;;;;;;7.65;1.52;;;7.10;99.90;;;;;;4888307;29;20058;-70
2021/12/01 14:40:58;;;;;;;6.43;1.55;;;7.10;99.90;;;;;;4865156;29;20041;-70
2021/12/01 14:43:32;;;;;;;10.00;1.20;;;7.10;99.90;;;;;;4882120;29;20557;-68
2021/12/01 14:46:10;;;;;;;8.15;1.92;;;7.10;99.90;;;;;;4899790;29;20056;-68
2021/12/01 14:48:35;;;;;;;5.60;1.27;;;7.10;99.90;;;;;;4884528;29;20056;-67
2021/12/01 14:51:02;;;;;;;9.27;2.17;;;7.20;99.90;;;;;;4884174;29;20071;-68
2021/12/01 14:53:37;;;;;;;6.82;1.65;;;7.10;99.90;;;;;;4901263;29;20048;-70
2021/12/01 14:56:06;;;;;;;7.97;1.85;;;7.10;99.90;;;;;;4898814;29;20139;-69
2021/12/01 14:58:32;;;;;;;7.43;1.20;;;7.10;99.90;;;;;;4896689;29;20052;-69
2021/12/01 15:01:01;;;;;;;7.80;1.75;;;7.10;99.90;;;;;;4885963;29;20147;-69
2021/12/01 15:03:34;;;;;;;10.23;1.88;;;7.10;99.90;;;;;;4898760;29;20092;-67
2021/12/01 15:05:59;;;;;;;10.13;1.67;;;7.00;99.90;;;;;;4898628;29;20060;-70
2021/12/01 15:08:46;;;;;;;6.85;1.20;;;7.10;99.90;;;;;;4895086;29;20131;-70
2021/12/01 15:11:18;;;;;;;11.80;2.17;;;7.00;99.90;;;;;;4895097;29;20056;-69
2021/12/01 15:13:47;;;;;;;10.23;1.90;;;7.00;99.90;;;;;;4896732;29;20049;-67
2021/12/01 15:16:21;;;;;;;11.93;1.77;;;7.00;99.90;;;;;;4885764;29;20053;-69
2021/12/01 15:19:15;;;;;;;8.95;2.10;;;7.00;99.90;;;;;;4863340;29;20548;-69
2021/12/01 15:21:45;;;;;;;8.70;2.05;;;7.10;99.90;;;;;;4899401;29;20052;-68
2021/12/01 15:24:15;;;;;;;8.77;1.70;;;7.10;99.90;;;;;;4893122;29;20116;-67
2021/12/01 15:26:46;;;;;;;6.40;1.30;;;7.00;99.90;;;;;;4898411;29;20493;-69
2021/12/01 15:29:15;;;;;;;9.38;1.55;;;7.00;99.90;;;;;;4911635;29;20519;-69
2021/12/01 15:31:56;;;;;;;8.50;1.98;;;6.90;99.90;;;;;;4919737;29;20091;-69
2021/12/01 15:34:23;;;;;;;10.05;1.75;;;6.90;99.90;;;;;;4877530;29;20435;-71
2021/12/01 15:36:50;;;;;;;9.68;1.60;;;6.80;99.90;;;;;;4862429;29;20049;-70
2021/12/01 15:39:22;;;;;;;7.25;1.63;;;6.80;99.90;;;;;;4911686;29;20057;-68
2021/12/01 15:41:50;;;;;;;11.25;2.00;;;6.70;99.90;;;;;;4912171;29;20057;-68
2021/12/01 15:44:16;;;;;;;6.10;1.75;;;6.70;99.90;;;;;;4894832;29;20103;-67
2021/12/01 15:46:42;;;;;;;8.13;1.40;;;6.70;99.90;;;;;;4914447;29;20056;-68
2021/12/01 15:49:09;;;;;;;7.95;1.70;;;6.70;99.90;;;;;;4897922;29;20135;-70
2021/12/01 15:51:35;;;;;;;8.63;2.28;;;6.70;99.90;;;;;;4898478;29;20143;-67
2021/12/01 15:54:01;;;;;;;10.48;2.08;;;6.70;99.90;;;;;;4917455;29;20048;-69
2021/12/01 15:56:26;;;;;;;9.32;1.67;;;6.70;99.90;;;;;;4882870;29;20386;-70
2021/12/01 15:58:52;;;;;;;11.82;2.13;;;6.70;99.90;;;;;;4883899;29;20045;-69
2021/12/01 16:01:18;;;;;;;6.45;1.60;;;6.70;99.90;;;;;;4882658;29;20054;-69
2021/12/01 16:03:43;;;;;;;12.88;2.28;;;6.70;99.90;;;;;;4894409;29;20059;-70
2021/12/01 16:06:10;;;;;;;8.10;1.73;;;6.70;99.90;;;;;;4899757;29;20067;-68
2021/12/01 16:08:36;;;;;;;8.43;1.98;;;6.70;99.90;;;;;;4890960;29;20428;-68
2021/12/01 16:11:02;;;;;;;10.02;2.33;;;6.70;99.90;;;;;;4893374;29;20150;-69
2021/12/01 16:13:28;;;;;;;10.80;2.05;;;6.60;99.90;;;;;;4892575;29;20091;-68
2021/12/01 16:15:54;;;;;;;13.30;1.92;;;6.60;99.90;;;;;;4914185;29;20049;-69
2021/12/01 16:18:20;;;;;;;8.38;2.13;;;6.60;99.90;;;;;;4883310;29;20126;-69
2021/12/01 16:20:46;;;;;;;7.72;1.77;;;6.50;99.90;;;;;;4894283;29;20120;-68
2021/12/01 16:23:15;;;;;;;11.07;2.58;;;6.40;99.90;;;;;;4911122;29;20066;-68
2021/12/01 16:25:43;;;;;;;5.90;1.58;;;6.40;99.90;;;;;;4878469;29;20123;-69
2021/12/01 16:28:09;;;;;;;10.52;1.73;;;6.30;99.90;;;;;;4879748;29;20052;-68
2021/12/01 16:30:35;;;;;;;10.00;1.83;;;6.20;99.90;;;;;;4889675;29;20063;-69
2021/12/01 16:33:01;;;;;;;7.97;2.35;;;6.20;99.90;;;;;;4896082;29;20131;-68
2021/12/01 16:35:31;;;;;;;11.55;3.33;;;6.20;99.90;;;;;;4898747;29;20580;-70
2021/12/01 16:38:00;;;;;;;7.45;2.38;;;6.10;99.90;;;;;;4882089;29;20053;-69
2021/12/01 16:40:30;;;;;;;9.63;2.97;;;6.10;99.90;;;;;;4900005;29;20060;-69
2021/12/01 16:42:56;;;;;;;9.50;1.90;;;6.10;99.90;;;;;;4882650;29;20048;-69
2021/12/01 16:45:23;;;;;;;9.38;2.00;;;6.10;99.90;;;;;;4882111;29;20061;-69
2021/12/01 16:47:49;;;;;;;7.25;2.00;;;6.10;99.90;;;;;;4881558;29;20512;-69
2021/12/01 16:50:15;;;;;;;10.23;2.70;;;6.10;99.90;;;;;;4881675;29;20083;-69
2021/12/01 16:52:42;;;;;;;11.73;2.92;;;6.10;99.90;;;;;;4898119;29;20473;-69
2021/12/01 16:55:09;;;;;;;6.60;2.35;;;6.10;99.90;;;;;;4882279;29;20056;-66
2021/12/01 16:57:35;;;;;;;5.78;2.63;;;6.00;99.90;;;;;;4898553;29;20049;-68
2021/12/01 17:00:04;;;;;;;10.43;2.50;;;6.00;99.90;;;;;;4903505;29;20051;-67
2021/12/01 17:02:30;;;;;;;8.05;1.75;;;6.00;99.90;;;;;;4899224;29;20112;-67
2021/12/01 17:05:03;;;;;;;9.63;1.60;;;5.90;99.90;;;;;;4897183;29;20473;-68
2021/12/01 17:07:39;;;;;;;12.65;1.60;;;6.00;99.90;;;;;;4895219;29;20405;-69
2021/12/01 17:10:05;;;;;;;12.50;2.65;;;5.90;99.90;;;;;;4899085;29;20059;-68
2021/12/01 17:12:31;;;;;;;9.63;1.80;;;5.90;99.90;;;;;;4881627;29;20489;-69
2021/12/01 17:14:57;;;;;;;5.20;1.70;;;5.90;99.90;;;;;;4897167;29;20040;-68
2021/12/01 17:17:23;;;;;;;9.90;1.90;;;5.90;99.90;;;;;;4897373;29;20057;-67
2021/12/01 17:19:51;;;;;;;8.70;1.67;;;5.90;99.90;;;;;;4896727;29;20060;-68
2021/12/01 17:22:17;;;;;;;5.53;2.15;;;6.00;99.90;;;;;;4882173;29;20534;-67
2021/12/01 17:24:43;;;;;;;7.55;1.63;;;6.00;99.90;;;;;;4898629;29;20112;-69
2021/12/01 17:27:11;;;;;;;8.75;2.05;;;5.90;99.90;;;;;;4896599;29;20052;-67
2021/12/01 17:29:39;;;;;;;8.77;1.63;;;5.90;99.90;;;;;;4880871;29;20135;-69
2021/12/01 17:32:13;;;;;;;5.40;2.03;;;5.70;99.90;;;;;;4882003;29;20040;-67
2021/12/01 17:34:39;;;;;;;6.57;1.90;;;5.70;99.90;;;;;;4881365;29;20053;-68
2021/12/01 17:37:06;;;;;;;5.65;1.60;;;5.60;99.90;;;;;;4881307;29;20048;-68
2021/12/01 17:39:34;;;;;;;7.65;1.58;;;5.60;99.90;;;;;;4881339;29;20067;-69
2021/12/01 17:42:00;;;;;;;12.80;1.80;;;5.50;99.90;;;;;;4881526;29;20132;-68
2021/12/01 17:44:26;;;;;;;7.93;1.45;;;5.60;99.90;;;;;;4881694;29;20052;-66
2021/12/01 17:46:53;;;;;;;10.35;1.55;;;5.60;99.90;;;;;;4880678;29;20390;-67
2021/12/01 17:49:19;;;;;;;10.65;1.63;;;5.60;99.90;;;;;;4881541;29;20099;-69
2021/12/01 17:51:44;;;;;;;9.85;1.85;;;5.70;99.90;;;;;;4881879;29;20482;-66
2021/12/01 17:54:10;;;;;;;16.08;2.30;;;5.60;99.90;;;;;;4895851;29;20401;-67
2021/12/01 17:56:36;;;;;;;10.07;1.63;;;5.60;99.90;;;;;;4881048;29;20080;-68
2021/12/01 17:59:03;;;;;;;5.57;1.60;;;5.70;99.90;;;;;;4881418;29;20485;-68
2021/12/01 18:01:28;;;;;;;8.23;1.90;;;5.70;99.90;;;;;;4897570;29;20124;-70
2021/12/01 18:03:54;;;;;;;3.90;1.15;;;5.70;99.90;;;;;;4896184;29;20156;-69
2021/12/01 18:06:20;;;;;;;5.80;1.55;;;5.70;99.90;;;;;;4880844;29;20060;-69
2021/12/01 18:08:46;;;;;;;9.90;1.45;;;5.70;99.90;;;;;;4881095;29;20091;-67
2021/12/01 18:11:13;;;;;;;8.23;1.70;;;5.70;99.90;;;;;;4881164;29;20060;-68
2021/12/01 18:13:38;;;;;;;8.38;1.50;;;5.70;99.90;;;;;;4896061;29;20144;-69
2021/12/01 18:16:04;;;;;;;4.65;1.83;;;5.70;99.90;;;;;;4897835;29;20131;-68
2021/12/01 18:18:30;;;;;;;5.57;1.30;;;5.60;99.90;;;;;;4881265;29;20060;-69
2021/12/01 18:20:56;;;;;;;5.03;1.50;;;5.60;99.90;;;;;;4880057;29;20059;-67
2021/12/01 18:23:23;;;;;;;7.28;1.67;;;5.50;99.90;;;;;;4881347;29;20436;-68
2021/12/01 18:25:50;;;;;;;5.07;1.13;;;5.50;99.90;;;;;;4880853;29;20529;-70
2021/12/01 18:28:16;;;;;;;5.50;2.03;;;5.40;99.90;;;;;;4880257;29;20075;-67
2021/12/01 18:30:42;;;;;;;7.20;2.17;;;5.40;99.90;;;;;;4880665;29;20496;-68
2021/12/01 18:33:09;;;;;;;9.70;2.15;;;5.40;99.90;;;;;;4881062;29;20064;-69
2021/12/01 18:35:35;;;;;;;6.65;1.73;;;5.40;99.90;;;;;;4880666;29;20063;-67
2021/12/01 18:38:03;;;;;;;10.25;1.63;;;5.40;99.90;;;;;;4881303;29;20424;-67
2021/12/01 18:40:28;;;;;;;6.68;1.95;;;5.40;99.90;;;;;;4896416;29;20068;-69
2021/12/01 18:42:54;;;;;;;5.25;1.27;;;5.50;99.90;;;;;;4897172;29;20052;-68
2021/12/01 18:45:20;;;;;;;4.72;1.60;;;5.40;99.90;;;;;;4880586;29;20056;-66
2021/12/01 18:47:49;;;;;;;7.28;1.40;;;5.40;99.90;;;;;;4880680;29;20143;-66
2021/12/01 18:50:15;;;;;;;4.38;1.50;;;5.40;99.90;;;;;;4896902;29;20063;-67
2021/12/01 18:52:41;;;;;;;4.22;1.23;;;5.40;99.90;;;;;;4881000;29;20127;-67
2021/12/01 18:55:09;;;;;;;5.05;1.23;;;5.40;99.90;;;;;;4880493;29;20564;-70
2021/12/01 18:57:34;;;;;;;8.18;1.85;;;5.40;99.90;;;;;;4877737;29;20128;-67
2021/12/01 19:00:01;;;;;;;8.05;2.17;;;5.40;99.90;;;;;;4879480;29;20183;-68
2021/12/01 19:02:31;;;;;;;7.47;2.17;;;5.90;99.90;;;;;;4879484;29;20056;-67
2021/12/01 19:04:57;;;;;;;3.50;1.50;;;5.30;99.90;;;;;;4875208;29;20053;-69
2021/12/01 19:07:23;;;;;;;3.55;0.85;;;5.30;99.90;;;;;;4897164;29;20068;-69
2021/12/01 19:09:49;;;;;;;1.33;0.70;;;5.20;99.90;;;;;;4881262;29;20064;-69
2021/12/01 19:12:15;;;;;;;4.82;1.10;;;5.10;99.90;;;;;;4880381;29;20057;-68
2021/12/01 19:14:41;;;;;;;2.40;1.00;;;5.10;99.90;;;;;;4895774;29;20049;-70
2021/12/01 19:17:08;;;;;;;5.07;1.55;;;5.00;99.90;;;;;;4895797;29;20054;-69
2021/12/01 19:19:35;;;;;;;4.75;1.17;;;5.00;99.90;;;;;;4880216;29;20060;-67
2021/12/01 19:22:02;;;;;;;1.98;0.98;;;5.00;99.90;;;;;;4898229;29;20368;-69
2021/12/01 19:24:29;;;;;;;8.43;1.38;;;5.00;99.90;;;;;;4900940;29;20446;-70
2021/12/01 19:26:54;;;;;;;3.10;1.10;;;5.00;99.90;;;;;;4883239;29;20055;-68
2021/12/01 19:29:21;;;;;;;3.17;1.25;;;4.90;99.90;;;;;;4883637;29;20053;-69
2021/12/01 19:31:48;;;;;;;3.88;1.15;;;5.00;99.90;;;;;;4882405;29;20048;-69
2021/12/01 19:34:14;;;;;;;3.75;1.30;;;4.90;99.90;;;;;;4880827;29;20077;-68
2021/12/01 19:36:40;;;;;;;5.68;1.40;;;4.90;99.90;;;;;;4898731;29;20053;-69
2021/12/01 19:39:05;;;;;;;4.40;1.30;;;5.00;99.90;;;;;;4884371;29;20476;-68
2021/12/01 19:41:31;;;;;;;3.22;1.45;;;5.00;99.90;;;;;;4883007;29;20442;-68
2021/12/01 19:43:57;;;;;;;4.72;1.35;;;4.90;99.90;;;;;;4899454;29;20055;-68
2021/12/01 19:46:23;;;;;;;10.27;2.05;;;5.00;99.90;;;;;;4883247;29;20057;-67
2021/12/01 19:48:50;;;;;;;4.93;1.42;;;5.00;99.90;;;;;;4900394;29;20407;-68
2021/12/01 19:51:18;;;;;;;6.63;1.42;;;5.00;99.90;;;;;;4898436;29;20460;-69
2021/12/01 19:53:44;;;;;;;3.85;1.35;;;4.90;99.90;;;;;;4898591;29;20078;-68
2021/12/01 19:56:11;;;;;;;4.15;1.80;;;4.90;99.90;;;;;;4883334;29;20203;-68
2021/12/01 19:58:37;;;;;;;7.35;1.80;;;5.00;99.90;;;;;;4884988;29;20048;-68
2021/12/01 20:01:04;;;;;;;4.70;1.45;;;4.90;99.90;;;;;;4882513;29;20398;-67
2021/12/01 20:03:30;;;;;;;4.90;1.30;;;4.90;99.90;;;;;;4899971;29;20056;-68